Time;durP1;ratioP1;P1;durP2;ratioP2;P2;SDS_P1;SDS_P2;PMS_P1;PMS_P2;Temp;Humidity;BMP_temperature;BMP_pressure;BME280_temperature;BME280_humidity;BME280_pressure;Samples;Min_cycle;Max_cycle;Signal;HPM_P1;HPM_P2
2024/02/20 00:00:48;;;;;;;7.38;4.03;;;;;;;11.48;70.05;100823.78;4147479;28;20097;-74
2024/02/20 00:02:49;;;;;;;8.35;4.45;;;;;;;11.40;70.08;100820.91;4148126;28;20046;-73
2024/02/20 00:04:50;;;;;;;7.50;3.88;;;;;;;11.64;69.52;100830.50;4148365;28;20100;-72
2024/02/20 00:06:50;;;;;;;6.35;3.38;;;;;;;11.69;69.31;100830.94;4147753;28;20375;-72
2024/02/20 00:08:51;;;;;;;5.20;3.38;;;;;;;11.81;68.79;100824.53;4149608;28;20643;-75
2024/02/20 00:10:51;;;;;;;6.38;3.97;;;;;;;11.62;69.23;100825.25;4147501;28;20152;-74
2024/02/20 00:12:52;;;;;;;7.93;3.92;;;;;;;11.67;69.40;100833.75;4148597;28;20141;-73
2024/02/20 00:14:53;;;;;;;8.38;4.80;;;;;;;11.51;69.73;100830.72;4146062;28;20036;-72
2024/02/20 00:16:54;;;;;;;7.90;4.63;;;;;;;11.35;70.54;100836.53;4146615;28;20026;-73
2024/02/20 00:18:55;;;;;;;9.35;4.15;;;;;;;11.34;70.51;100824.13;4146868;28;20033;-72
2024/02/20 00:20:56;;;;;;;9.38;4.82;;;;;;;11.31;70.68;100824.38;4147796;28;20040;-74
2024/02/20 00:22:56;;;;;;;7.50;3.97;;;;;;;11.54;69.72;100825.06;4147983;28;20053;-75
2024/02/20 00:24:56;;;;;;;7.67;4.30;;;;;;;11.55;69.59;100829.44;4147533;28;20025;-72
2024/02/20 00:26:57;;;;;;;8.83;4.07;;;;;;;11.43;69.79;100833.19;4154220;28;20271;-74
2024/02/20 00:28:57;;;;;;;7.90;4.20;;;;;;;11.27;70.41;100833.66;4155672;28;20265;-73
2024/02/20 00:30:58;;;;;;;7.80;4.20;;;;;;;11.49;69.78;100827.31;4147847;28;20030;-72
2024/02/20 00:32:58;;;;;;;7.75;3.90;;;;;;;11.49;69.95;100816.59;4152151;28;20030;-73
2024/02/20 00:34:59;;;;;;;7.72;3.90;;;;;;;11.31;70.07;100819.88;4155828;28;20108;-73
2024/02/20 00:36:59;;;;;;;8.52;4.38;;;;;;;11.34;70.06;100822.28;4156687;28;20030;-74
2024/02/20 00:39:00;;;;;;;6.05;3.70;;;;;;;11.63;69.04;100824.28;4158864;28;20122;-73
2024/02/20 00:41:01;;;;;;;6.22;3.55;;;;;;;11.62;68.92;100819.91;4159268;28;20180;-74
2024/02/20 00:43:03;;;;;;;7.43;3.92;;;;;;;11.43;69.35;100822.50;4162033;28;20060;-73
2024/02/20 00:45:04;;;;;;;8.77;3.97;;;;;;;11.40;69.51;100820.91;4161700;28;20036;-72
2024/02/20 00:47:09;;;;;;;11.27;4.43;;;;;;;11.45;69.26;100818.69;4164002;28;20033;-73
2024/02/20 00:49:10;;;;;;;6.82;3.47;;;;;;;11.36;69.47;100817.66;4166346;28;20033;-74
2024/02/20 00:51:11;;;;;;;8.90;3.63;;;;;;;11.41;69.29;100813.75;4163995;28;20018;-72
2024/02/20 00:53:13;;;;;;;6.47;3.13;;;;;;;11.58;68.63;100813.13;4168029;28;20018;-73
2024/02/20 00:55:15;;;;;;;4.97;2.78;;;;;;;11.69;68.43;100815.72;4165480;28;20021;-74
2024/02/20 00:57:18;;;;;;;5.22;2.70;;;;;;;11.54;68.63;100820.59;4166556;28;20010;-74
2024/02/20 00:59:31;;;;;;;6.35;2.83;;;;;;;11.62;68.03;100819.91;4167257;28;20021;-73
2024/02/20 01:01:31;;;;;;;5.53;3.00;;;;;;;11.59;68.33;100820.19;4162160;28;20018;-73
2024/02/20 01:03:32;;;;;;;6.60;3.15;;;;;;;11.24;69.27;100832.94;4157681;28;20129;-73
2024/02/20 01:05:32;;;;;;;6.20;2.83;;;;;;;11.28;69.08;100830.84;4159698;28;20034;-71
2024/02/20 01:07:32;;;;;;;5.72;2.95;;;;;;;11.18;69.65;100827.25;4164070;28;20030;-71
2024/02/20 01:09:38;;;;;;;6.13;2.80;;;;;;;11.34;69.17;100824.94;4166437;28;20038;-73
2024/02/20 01:11:38;;;;;;;6.47;2.83;;;;;;;11.44;68.73;100834.88;4160416;28;20097;-73
2024/02/20 01:13:39;;;;;;;6.68;3.00;;;;;;;11.18;69.46;100835.25;4158488;28;20025;-72
2024/02/20 01:15:40;;;;;;;5.65;2.60;;;;;;;11.38;68.77;100837.09;4149027;28;20034;-72
2024/02/20 01:17:41;;;;;;;5.53;3.00;;;;;;;11.08;69.76;100846.75;4149682;28;20030;-73
2024/02/20 01:19:41;;;;;;;5.50;2.63;;;;;;;11.36;68.84;100833.72;4151500;28;20052;-74
2024/02/20 01:21:42;;;;;;;8.93;2.63;;;;;;;11.21;69.19;100837.69;4147913;28;20490;-72
2024/02/20 01:23:42;;;;;;;6.25;2.63;;;;;;;11.27;68.86;100834.50;4147707;28;20037;-73
2024/02/20 01:25:43;;;;;;;6.45;2.78;;;;;;;11.43;68.21;100834.03;4147596;28;20149;-71
2024/02/20 01:27:44;;;;;;;4.78;2.72;;;;;;;11.34;68.56;100838.34;4146868;28;20742;-72
2024/02/20 01:29:45;;;;;;;5.20;2.20;;;;;;;11.41;68.32;100829.81;4150415;28;20053;-75
2024/02/20 01:31:45;;;;;;;6.30;2.88;;;;;;;11.22;68.78;100831.38;4149870;28;20044;-75
2024/02/20 01:33:46;;;;;;;5.70;2.70;;;;;;;10.99;69.57;100828.78;4147227;28;20694;-72
2024/02/20 01:35:46;;;;;;;5.95;2.30;;;;;;;10.99;69.73;100834.13;4146806;28;20145;-72
2024/02/20 01:37:46;;;;;;;5.15;2.63;;;;;;;11.04;69.33;100833.75;4146171;28;20125;-73
2024/02/20 01:39:47;;;;;;;5.97;3.20;;;;;;;10.75;70.13;100837.03;4145236;28;20034;-72
2024/02/20 01:41:50;;;;;;;7.72;3.03;;;;;;;10.99;69.81;100842.16;4147415;28;20022;-72
2024/02/20 01:43:51;;;;;;;5.85;2.88;;;;;;;10.90;69.61;100843.81;4146605;28;20036;-75
2024/02/20 01:45:51;;;;;;;5.55;2.50;;;;;;;11.04;69.16;100844.44;4145327;28;20112;-73
2024/02/20 01:47:52;;;;;;;5.90;2.88;;;;;;;10.91;69.47;100845.47;4148251;28;20433;-72
2024/02/20 01:49:53;;;;;;;7.45;2.65;;;;;;;10.95;69.45;100851.44;4147165;28;20026;-73
2024/02/20 01:51:54;;;;;;;;;;;;;;;10.88;69.56;100845.75;4148604;28;20439;-72
2024/02/20 01:53:55;;;;;;;5.55;2.63;;;;;;;11.03;68.80;100837.41;4147046;28;19955;-72
2024/02/20 01:55:58;;;;;;;6.93;2.78;;;;;;;10.89;69.24;100836.75;4146592;28;20034;-73
2024/02/20 01:57:58;;;;;;;6.20;2.45;;;;;;;10.88;69.38;100839.53;4145868;28;20610;-73
2024/02/20 01:59:59;;;;;;;4.07;1.98;;;;;;;10.90;69.15;100846.47;4146314;28;20029;-72
2024/02/20 02:01:59;;;;;;;4.25;2.22;;;;;;;11.02;68.75;100844.59;4146857;28;20109;-72
2024/02/20 02:04:00;;;;;;;4.50;1.65;;;;;;;11.07;68.41;100844.22;4145090;28;20092;-73
2024/02/20 02:06:00;;;;;;;9.50;2.67;;;;;;;11.15;68.13;100843.53;4146497;28;20040;-74
2024/02/20 02:08:00;;;;;;;6.20;1.70;;;;;;;11.30;67.70;100844.06;4146631;28;20026;-73
2024/02/20 02:10:01;;;;;;;5.63;1.80;;;;;;;11.33;67.37;100850.06;4146618;28;20038;-73
2024/02/20 02:12:03;;;;;;;4.70;2.03;;;;;;;11.15;67.57;100843.53;4146817;28;20033;-72
2024/02/20 02:14:03;;;;;;;8.60;2.20;;;;;;;11.21;67.28;100851.91;4146900;28;20122;-73
2024/02/20 02:16:04;;;;;;;4.53;1.85;;;;;;;11.28;66.96;100860.28;4144915;28;20029;-73
2024/02/20 02:18:04;;;;;;;6.22;1.55;;;;;;;11.12;66.97;100852.69;4146906;28;20053;-73
2024/02/20 02:20:06;;;;;;;7.78;2.05;;;;;;;10.93;67.21;100853.38;4145204;28;20022;-73
2024/02/20 02:22:07;;;;;;;5.93;1.70;;;;;;;10.83;67.31;100860.47;4147428;28;20113;-73
2024/02/20 02:24:09;;;;;;;7.10;2.30;;;;;;;11.17;66.17;100865.69;4147566;28;20056;-72
2024/02/20 02:26:11;;;;;;;8.77;1.98;;;;;;;11.21;65.90;100851.91;4146540;28;20026;-72
2024/02/20 02:28:11;;;;;;;9.20;2.20;;;;;;;11.05;66.22;100856.84;4145568;28;20026;-73
2024/02/20 02:30:12;;;;;;;5.22;1.58;;;;;;;11.24;65.22;100864.22;4148652;28;20123;-74
2024/02/20 02:32:13;;;;;;;4.65;1.58;;;;;;;11.36;64.87;100871.19;4153007;28;20033;-72
2024/02/20 02:34:13;;;;;;;5.75;1.80;;;;;;;11.41;64.55;100864.59;4153842;28;20089;-73
2024/02/20 02:36:14;;;;;;;5.70;1.60;;;;;;;11.20;64.78;100870.78;4153027;28;20026;-72
2024/02/20 02:38:14;;;;;;;5.78;1.83;;;;;;;11.22;64.79;100874.19;4151017;28;20036;-73
2024/02/20 02:40:15;;;;;;;6.83;2.10;;;;;;;10.93;65.00;100885.50;4139397;28;20029;-72
2024/02/20 02:42:16;;;;;;;4.07;1.70;;;;;;;10.92;65.49;100883.78;4152904;28;20292;-73
2024/02/20 02:44:18;;;;;;;7.07;2.63;;;;;;;10.59;65.91;100885.56;4154876;28;20060;-72
2024/02/20 02:46:18;;;;;;;6.75;1.50;;;;;;;10.59;65.69;100890.91;4136012;28;20064;-73
2024/02/20 02:48:19;;;;;;;9.18;2.13;;;;;;;10.39;66.00;100892.53;4133449;28;20407;-73
2024/02/20 02:50:19;;;;;;;5.65;1.80;;;;;;;10.23;65.86;100893.72;4133001;28;20049;-72
2024/02/20 02:52:20;;;;;;;8.80;1.75;;;;;;;10.30;65.63;100894.94;4133399;28;20043;-72
2024/02/20 02:54:20;;;;;;;6.55;1.73;;;;;;;10.14;65.72;100889.94;4133492;28;20040;-73
2024/02/20 02:56:22;;;;;;;9.40;2.70;;;;;;;10.35;65.32;100897.22;4133248;28;20027;-72
2024/02/20 02:58:22;;;;;;;8.63;2.50;;;;;;;10.30;65.16;100894.06;4132453;28;20276;-73
2024/02/20 03:00:23;;;;;;;6.28;2.83;;;;;;;10.34;65.12;100900.88;4132888;28;20042;-72
2024/02/20 03:02:25;;;;;;;11.77;2.22;;;;;;;10.32;64.88;100902.81;4131119;28;20505;-72
2024/02/20 03:04:25;;;;;;;5.75;1.70;;;;;;;10.52;64.47;100906.63;4133006;28;20034;-72
2024/02/20 03:06:27;;;;;;;7.22;2.10;;;;;;;10.60;64.30;100903.31;4132719;28;20051;-72
2024/02/20 03:08:28;;;;;;;5.22;1.80;;;;;;;10.63;64.08;100913.75;4131954;28;20100;-72
2024/02/20 03:10:29;;;;;;;6.83;1.70;;;;;;;10.61;64.23;100916.56;4132597;28;20034;-72
2024/02/20 03:12:30;;;;;;;7.93;1.80;;;;;;;10.57;64.08;100917.78;4132950;28;20274;-72
2024/02/20 03:14:30;;;;;;;9.60;2.22;;;;;;;10.40;64.37;100923.63;4133057;28;20014;-73
2024/02/20 03:16:30;;;;;;;10.55;2.13;;;;;;;10.43;64.39;100926.91;4132712;28;20037;-73
2024/02/20 03:18:32;;;;;;;11.60;2.35;;;;;;;10.06;65.11;100934.28;4132843;28;20479;-73
2024/02/20 03:20:33;;;;;;;10.32;2.30;;;;;;;10.27;64.29;100918.38;4132265;28;20034;-74
2024/02/20 03:22:35;;;;;;;;;;;;;;;10.15;64.00;100929.06;4133384;28;20026;-73
2024/02/20 03:24:36;;;;;;;;;;;;;;;10.09;63.92;100926.00;4133351;28;20278;-73
2024/02/20 03:26:39;;;;;;;9.98;2.40;;;;;;;10.20;63.80;100928.69;4132474;28;20325;-73
2024/02/20 03:28:39;;;;;;;11.30;2.45;;;;;;;10.20;63.53;100933.19;4131127;28;20030;-73
2024/02/20 03:30:41;;;;;;;16.33;3.60;;;;;;;9.97;63.61;100934.00;4132324;28;20493;-72
2024/02/20 03:32:42;;;;;;;12.68;2.63;;;;;;;10.17;63.30;100936.09;4132420;28;20034;-73
2024/02/20 03:34:43;;;;;;;11.70;2.42;;;;;;;10.09;63.24;100936.69;4132744;28;20431;-72
2024/02/20 03:36:44;;;;;;;11.63;3.10;;;;;;;10.40;62.38;100937.00;4132389;28;20038;-73
2024/02/20 03:38:45;;;;;;;12.75;2.97;;;;;;;10.05;63.05;100938.75;4132273;28;20023;-74
2024/02/20 03:40:45;;;;;;;12.57;3.47;;;;;;;10.05;63.16;100946.78;4132265;28;20177;-73
2024/02/20 03:42:46;;;;;;;14.30;3.85;;;;;;;10.18;62.76;100943.16;4132329;28;20387;-73
2024/02/20 03:44:46;;;;;;;10.02;2.92;;;;;;;10.33;62.34;100946.44;4132538;28;20030;-73
2024/02/20 03:46:47;;;;;;;10.13;2.20;;;;;;;10.49;61.82;100956.78;4131230;28;20030;-72
2024/02/20 03:48:47;;;;;;;16.90;3.67;;;;;;;10.57;61.64;100951.69;4132661;28;20518;-73
2024/02/20 03:50:48;;;;;;;9.73;2.20;;;;;;;10.57;61.60;100952.53;4131984;28;20463;-73
2024/02/20 03:52:49;;;;;;;9.77;2.40;;;;;;;10.60;61.56;100959.44;4132219;28;20026;-74
2024/02/20 03:54:50;;;;;;;10.63;2.60;;;;;;;10.65;61.54;100959.94;4132580;28;20471;-73
2024/02/20 03:56:50;;;;;;;9.45;3.00;;;;;;;10.69;61.38;100958.72;4131692;28;20045;-73
2024/02/20 03:58:51;;;;;;;10.13;2.65;;;;;;;10.64;61.42;100968.06;4131607;28;20076;-76
2024/02/20 04:00:52;;;;;;;9.27;2.33;;;;;;;10.71;61.42;100972.81;4131680;28;20113;-73
2024/02/20 04:02:56;;;;;;;7.00;2.30;;;;;;;10.74;61.47;100977.94;4130483;28;20141;-73
2024/02/20 04:04:57;;;;;;;9.07;2.00;;;;;;;10.75;61.27;100976.97;4131990;28;20042;-73
2024/02/20 04:06:57;;;;;;;6.65;2.20;;;;;;;10.67;61.42;100983.88;4131879;28;20060;-73
2024/02/20 04:09:03;;;;;;;8.53;2.27;;;;;;;10.68;61.59;100981.06;4132052;28;20030;-73
2024/02/20 04:11:05;;;;;;;10.27;2.47;;;;;;;10.41;62.33;100984.97;4130032;28;20280;-73
2024/02/20 04:13:05;;;;;;;9.35;2.33;;;;;;;10.54;61.94;100989.38;4132419;28;20034;-72
2024/02/20 04:15:07;;;;;;;7.97;2.60;;;;;;;10.68;61.67;100986.44;4131882;28;20109;-73
2024/02/20 04:17:08;;;;;;;10.88;2.55;;;;;;;10.69;61.59;100993.47;4130125;28;20038;-73
2024/02/20 04:19:08;;;;;;;8.52;2.90;;;;;;;10.61;61.81;100995.91;4131831;28;20036;-73
2024/02/20 04:21:08;;;;;;;12.38;3.08;;;;;;;10.04;63.01;101001.16;4130705;28;20518;-72
2024/02/20 04:23:09;;;;;;;11.80;3.00;;;;;;;10.34;62.18;101001.59;4131517;28;20019;-73
2024/02/20 04:25:09;;;;;;;12.68;3.08;;;;;;;10.20;62.74;101008.84;4131555;28;20563;-73
2024/02/20 04:27:10;;;;;;;11.27;3.03;;;;;;;10.31;62.22;101013.34;4131701;28;20030;-72
2024/02/20 04:29:10;;;;;;;10.52;3.42;;;;;;;10.30;62.23;101006.31;4132010;28;20030;-75
2024/02/20 04:31:11;;;;;;;10.57;3.03;;;;;;;10.41;61.90;101006.34;4131887;28;20037;-73
2024/02/20 04:33:11;;;;;;;11.68;2.65;;;;;;;10.52;61.66;101008.22;4131070;28;20105;-73
2024/02/20 04:35:12;;;;;;;7.90;1.90;;;;;;;10.58;61.52;101009.56;4130955;28;20034;-73
2024/02/20 04:37:14;;;;;;;10.27;2.85;;;;;;;10.39;62.06;101002.94;4129743;28;20065;-75
2024/02/20 04:39:14;;;;;;;9.70;2.55;;;;;;;10.11;62.46;101015.75;4130117;28;20033;-72
2024/02/20 04:41:25;;;;;;;8.45;2.33;;;;;;;10.22;62.35;101020.28;4131034;28;20034;-74
2024/02/20 04:43:25;;;;;;;11.13;3.03;;;;;;;10.13;62.70;101010.31;4131279;28;20145;-73
2024/02/20 04:45:26;;;;;;;9.48;2.70;;;;;;;10.35;62.02;101017.50;4128387;28;20054;-72
2024/02/20 04:47:28;;;;;;;9.45;2.40;;;;;;;10.17;62.50;101016.25;4136972;28;20037;-74
2024/02/20 04:49:28;;;;;;;11.48;2.25;;;;;;;10.14;62.83;101023.53;4147341;28;20034;-73
2024/02/20 04:51:30;;;;;;;11.05;3.10;;;;;;;10.14;62.69;101023.53;4139231;28;20038;-71
2024/02/20 04:53:30;;;;;;;10.30;2.35;;;;;;;10.06;62.80;101028.63;4142645;28;20030;-72
2024/02/20 04:55:31;;;;;;;9.57;2.40;;;;;;;10.01;63.08;101032.63;4148648;28;20034;-74
2024/02/20 04:57:31;;;;;;;9.93;2.20;;;;;;;10.04;63.09;101032.38;4141610;28;20038;-72
2024/02/20 04:59:32;;;;;;;8.95;2.67;;;;;;;9.84;63.53;101038.25;4138065;28;20037;-70
2024/02/20 05:01:32;;;;;;;9.10;3.15;;;;;;;10.11;62.87;101034.47;4143062;28;20120;-73
2024/02/20 05:03:32;;;;;;;6.20;2.03;;;;;;;10.26;62.42;101031.59;4135755;28;20050;-72
2024/02/20 05:05:35;;;;;;;12.87;2.03;;;;;;;10.25;62.41;101033.38;4140072;28;20244;-72
2024/02/20 05:07:36;;;;;;;8.15;1.98;;;;;;;10.44;61.93;101035.53;4139438;28;20297;-71
2024/02/20 05:09:36;;;;;;;;;;;;;;;10.43;61.83;101044.53;4143362;28;20038;-73
2024/02/20 05:11:37;;;;;;;10.73;2.13;;;;;;;10.21;62.38;101039.97;4146158;28;19917;-72
2024/02/20 05:13:37;;;;;;;13.77;2.72;;;;;;;10.00;63.00;101045.13;4144225;28;20565;-74
2024/02/20 05:15:38;;;;;;;11.17;3.27;;;;;;;9.97;62.93;101043.53;4143233;28;20117;-72
2024/02/20 05:17:38;;;;;;;12.38;2.72;;;;;;;10.00;63.02;101042.47;4137747;28;20034;-74
2024/02/20 05:19:39;;;;;;;9.85;2.50;;;;;;;10.26;62.23;101039.59;4160304;28;20591;-73
2024/02/20 05:21:39;;;;;;;13.88;3.42;;;;;;;10.28;62.16;101027.81;4161150;28;20021;-74
2024/02/20 05:23:40;;;;;;;9.43;2.77;;;;;;;10.29;61.95;101034.88;4149889;28;20062;-73
2024/02/20 05:25:40;;;;;;;12.73;3.28;;;;;;;9.83;62.97;101039.22;4145939;28;20370;-72
2024/02/20 05:27:40;;;;;;;12.82;3.00;;;;;;;9.79;63.18;101034.22;4145951;28;20030;-73
2024/02/20 05:29:41;;;;;;;15.18;4.05;;;;;;;9.73;63.16;101048.06;4146279;28;20026;-73
2024/02/20 05:31:41;;;;;;;12.32;3.42;;;;;;;9.80;62.82;101044.81;4145967;28;20099;-72
2024/02/20 05:33:41;;;;;;;15.00;3.63;;;;;;;9.79;62.94;101045.78;4146333;28;20115;-73
2024/02/20 05:35:44;;;;;;;9.33;2.80;;;;;;;9.63;63.45;101045.22;4146238;28;20029;-72
2024/02/20 05:37:46;;;;;;;11.05;2.63;;;;;;;9.83;62.82;101046.41;4145880;28;20364;-73
2024/02/20 05:39:46;;;;;;;13.35;2.95;;;;;;;10.10;61.91;101031.91;4146424;28;20029;-74
2024/02/20 05:41:47;;;;;;;13.05;2.97;;;;;;;9.91;62.47;101043.16;4145609;28;20061;-73
2024/02/20 05:43:48;;;;;;;14.55;3.70;;;;;;;9.65;63.00;101044.16;4157823;28;20061;-72
2024/02/20 05:45:48;;;;;;;12.70;2.83;;;;;;;9.59;63.31;101049.09;4158809;28;20418;-74
2024/02/20 05:47:49;;;;;;;12.37;2.90;;;;;;;9.73;62.79;101053.41;4159917;28;20029;-74
2024/02/20 05:49:49;;;;;;;11.82;2.88;;;;;;;9.66;63.11;101055.66;4162619;28;20263;-70
2024/02/20 05:51:49;;;;;;;11.97;3.03;;;;;;;9.42;63.56;101053.00;4161580;28;20467;-73
2024/02/20 05:53:50;;;;;;;15.98;3.38;;;;;;;9.50;63.53;101056.81;4160439;28;20253;-74
2024/02/20 05:55:51;;;;;;;15.75;3.70;;;;;;;9.45;63.55;101055.44;4163419;28;20041;-72
2024/02/20 05:57:51;;;;;;;14.75;2.92;;;;;;;9.38;63.61;101057.72;4163494;28;20097;-72
2024/02/20 05:59:52;;;;;;;17.08;3.70;;;;;;;9.36;63.70;101059.63;4163562;28;20028;-72
2024/02/20 06:01:52;;;;;;;14.63;3.67;;;;;;;9.28;64.05;101057.53;4162972;28;20057;-73
2024/02/20 06:03:52;;;;;;;14.60;3.37;;;;;;;9.38;63.93;101065.72;4165100;28;20288;-76
2024/02/20 06:05:53;;;;;;;18.57;3.43;;;;;;;9.25;64.09;101068.44;4162267;28;20260;-72
2024/02/20 06:07:53;;;;;;;17.27;4.50;;;;;;;9.50;63.57;101072.84;4147599;28;20030;-73
2024/02/20 06:09:54;;;;;;;15.10;3.15;;;;;;;9.45;63.42;101069.63;4145212;28;20096;-71
2024/02/20 06:11:54;;;;;;;14.10;3.22;;;;;;;9.56;63.31;101068.00;4147096;28;20167;-71
2024/02/20 06:13:54;;;;;;;18.13;4.10;;;;;;;9.38;63.34;101071.06;4146009;28;20034;-73
2024/02/20 06:15:55;;;;;;;12.47;3.40;;;;;;;9.47;63.72;101078.38;4148154;28;20104;-73
2024/02/20 06:17:55;;;;;;;14.05;3.20;;;;;;;9.50;63.37;101085.31;4149381;28;20030;-73
2024/02/20 06:19:55;;;;;;;17.63;4.30;;;;;;;9.32;63.69;101088.34;4149234;28;20451;-73
2024/02/20 06:21:56;;;;;;;9.77;3.23;;;;;;;9.55;63.22;101085.84;4149119;28;20330;-72
2024/02/20 06:23:56;;;;;;;12.63;2.90;;;;;;;9.61;63.08;101095.22;4149547;28;20045;-72
2024/02/20 06:25:57;;;;;;;11.15;3.22;;;;;;;9.92;62.08;101084.94;4148534;28;20144;-73
2024/02/20 06:27:58;;;;;;;16.42;4.82;;;;;;;9.54;63.26;101092.13;4149096;28;20080;-73
2024/02/20 06:29:59;;;;;;;16.17;3.72;;;;;;;9.79;62.55;101082.31;4147509;28;20033;-73
2024/02/20 06:31:59;;;;;;;10.75;3.13;;;;;;;9.56;63.05;101097.34;4149972;28;20471;-72
2024/02/20 06:34:02;;;;;;;9.50;3.10;;;;;;;9.58;63.02;101100.78;4149217;28;20693;-72
2024/02/20 06:36:03;;;;;;;17.65;3.40;;;;;;;9.54;63.12;101104.66;4149613;28;20057;-72
2024/02/20 06:38:03;;;;;;;14.27;3.28;;;;;;;9.58;63.17;101098.97;4150116;28;20080;-73
2024/02/20 06:40:05;;;;;;;13.45;3.60;;;;;;;9.75;62.55;101102.22;4151663;28;20041;-73
2024/02/20 06:42:06;;;;;;;12.98;3.45;;;;;;;9.63;63.10;101109.31;4153980;28;20056;-72
2024/02/20 06:44:06;;;;;;;12.15;3.38;;;;;;;9.46;63.55;101108.69;4151446;28;20390;-71
2024/02/20 06:46:07;;;;;;;13.60;3.70;;;;;;;9.62;63.13;101107.59;4149019;28;20030;-74
2024/02/20 06:48:07;;;;;;;13.65;3.35;;;;;;;9.36;64.01;101105.00;4150163;28;20260;-73
2024/02/20 06:50:11;;;;;;;15.02;3.53;;;;;;;9.57;63.40;101115.94;4148814;28;20077;-73
2024/02/20 06:52:12;;;;;;;11.75;3.08;;;;;;;9.34;64.08;101114.94;4149134;28;20030;-74
2024/02/20 06:54:12;;;;;;;9.95;2.75;;;;;;;9.58;63.56;101122.13;4148984;28;20095;-71
2024/02/20 06:56:13;;;;;;;16.27;3.87;;;;;;;9.30;64.27;101124.13;4148976;28;20045;-73
2024/02/20 06:58:13;;;;;;;10.98;2.72;;;;;;;9.31;64.30;101121.34;4149494;28;20029;-72
2024/02/20 07:00:14;;;;;;;12.18;3.10;;;;;;;9.12;64.97;101129.81;4147276;28;20026;-71
2024/02/20 07:02:15;;;;;;;12.63;2.90;;;;;;;9.17;64.88;101119.66;4150507;28;20513;-73
2024/02/20 07:04:15;;;;;;;10.73;2.73;;;;;;;9.19;64.84;101130.25;4151781;28;20042;-72
2024/02/20 07:06:16;;;;;;;8.63;2.08;;;;;;;9.21;65.02;101139.84;4151146;28;20257;-75
2024/02/20 07:08:17;;;;;;;9.93;2.80;;;;;;;9.14;65.22;101141.25;4151857;28;20121;-72
2024/02/20 07:10:19;;;;;;;12.32;2.95;;;;;;;9.16;65.44;101141.97;4151589;28;20814;-73
2024/02/20 07:12:23;;;;;;;12.50;2.95;;;;;;;9.30;65.39;101145.47;4152959;28;20022;-73
2024/02/20 07:14:23;;;;;;;11.07;2.88;;;;;;;9.24;65.22;101143.25;4149110;28;20029;-73
2024/02/20 07:16:23;;;;;;;13.05;3.15;;;;;;;9.51;64.59;101154.63;4150376;28;20105;-73
2024/02/20 07:18:24;;;;;;;14.53;3.20;;;;;;;9.20;65.95;101150.63;4149391;28;20037;-71
2024/02/20 07:20:25;;;;;;;11.53;3.77;;;;;;;9.04;66.35;101161.53;4147406;28;20336;-71
2024/02/20 07:22:26;;;;;;;12.55;3.05;;;;;;;9.34;65.30;101161.16;4149707;28;20033;-73
2024/02/20 07:24:28;;;;;;;9.65;2.95;;;;;;;9.45;65.19;101152.38;4148875;28;20498;-73
2024/02/20 07:26:28;;;;;;;;;;;;;;;9.29;65.63;101155.31;4148913;28;20478;-72
2024/02/20 07:28:28;;;;;;;8.43;2.27;;;;;;;9.54;65.01;101163.38;4148117;28;19963;-72
2024/02/20 07:30:30;;;;;;;10.82;3.00;;;;;;;9.65;64.91;101155.41;4148741;28;20025;-72
2024/02/20 07:32:31;;;;;;;15.50;4.15;;;;;;;9.82;64.26;101163.03;4149704;28;20041;-73
2024/02/20 07:34:31;;;;;;;14.30;3.90;;;;;;;9.77;64.50;101162.53;4147272;28;20018;-73
2024/02/20 07:36:32;;;;;;;12.68;3.42;;;;;;;9.60;64.73;101160.25;4148133;28;20034;-72
2024/02/20 07:38:32;;;;;;;9.90;3.08;;;;;;;9.66;64.93;101157.13;4147092;28;20115;-73
2024/02/20 07:40:33;;;;;;;11.30;2.90;;;;;;;9.80;64.53;101162.31;4147883;28;20026;-72
2024/02/20 07:42:33;;;;;;;7.38;2.22;;;;;;;9.79;64.65;101163.28;4148152;28;20049;-74
2024/02/20 07:44:34;;;;;;;10.80;3.47;;;;;;;9.67;65.03;101169.50;4147951;28;20037;-73
2024/02/20 07:46:34;;;;;;;10.82;3.13;;;;;;;9.84;64.63;101170.97;4147984;28;20489;-71
2024/02/20 07:48:35;;;;;;;7.97;3.08;;;;;;;9.61;65.19;101164.63;4148262;28;20022;-73
2024/02/20 07:50:35;;;;;;;11.55;3.05;;;;;;;9.76;65.00;101163.50;4150334;28;20030;-72
2024/02/20 07:52:36;;;;;;;10.27;2.78;;;;;;;9.76;65.19;101170.69;4149199;28;20447;-74
2024/02/20 07:54:36;;;;;;;13.13;3.65;;;;;;;10.11;64.43;101170.72;4148850;28;20105;-73
2024/02/20 07:56:39;;;;;;;12.35;3.22;;;;;;;10.08;64.18;101168.28;4147979;28;20041;-71
2024/02/20 07:58:39;;;;;;;10.65;3.30;;;;;;;10.06;64.28;101174.72;4147637;28;20026;-71
2024/02/20 08:00:40;;;;;;;11.65;2.97;;;;;;;10.14;64.27;101175.84;4147387;28;20026;-71
2024/02/20 08:02:40;;;;;;;11.20;3.50;;;;;;;10.24;64.21;101172.50;4147034;28;20038;-73
2024/02/20 08:04:41;;;;;;;13.43;3.30;;;;;;;10.17;64.27;101171.25;4147259;28;20026;-72
2024/02/20 08:06:41;;;;;;;13.98;3.15;;;;;;;10.31;63.76;101173.72;4147617;28;20326;-72
2024/02/20 08:08:42;;;;;;;10.63;2.78;;;;;;;10.46;63.07;101171.75;4147897;28;20080;-72
2024/02/20 08:10:43;;;;;;;10.18;3.13;;;;;;;10.47;63.17;101180.63;4147525;28;20033;-72
2024/02/20 08:12:43;;;;;;;12.23;3.55;;;;;;;10.29;63.56;101179.19;4147586;28;20080;-73
2024/02/20 08:14:44;;;;;;;12.35;3.67;;;;;;;10.29;63.73;101195.22;4147353;28;20022;-71
2024/02/20 08:16:48;;;;;;;9.95;3.28;;;;;;;10.21;63.80;101188.75;4147607;28;20509;-73
2024/02/20 08:18:48;;;;;;;13.93;3.55;;;;;;;10.34;63.29;101184.19;4146371;28;20105;-71
2024/02/20 08:20:49;;;;;;;12.88;3.20;;;;;;;10.18;63.78;101187.16;4147378;28;20126;-73
2024/02/20 08:22:50;;;;;;;10.10;2.92;;;;;;;10.17;64.03;101179.25;4148208;28;20076;-71
2024/02/20 08:24:50;;;;;;;12.07;2.97;;;;;;;10.39;63.28;101184.72;4149780;28;20022;-72
2024/02/20 08:26:50;;;;;;;8.77;3.60;;;;;;;10.17;63.69;101193.47;4149111;28;20022;-73
2024/02/20 08:28:51;;;;;;;15.55;3.58;;;;;;;10.33;63.49;101193.19;4153262;28;20052;-73
2024/02/20 08:30:52;;;;;;;8.23;3.60;;;;;;;10.64;62.83;101185.53;4157646;28;20069;-72
2024/02/20 08:32:53;;;;;;;13.40;4.13;;;;;;;10.53;62.98;101188.19;4160063;28;20030;-71
2024/02/20 08:34:54;;;;;;;13.27;4.80;;;;;;;10.26;63.77;101183.91;4156277;28;20021;-75
2024/02/20 08:36:55;;;;;;;14.07;5.03;;;;;;;10.14;64.10;101189.22;4162064;28;20053;-71
2024/02/20 08:38:55;;;;;;;15.82;4.13;;;;;;;10.53;63.07;101185.50;4157742;28;20288;-71
2024/02/20 08:40:57;;;;;;;12.35;4.43;;;;;;;10.45;63.44;101186.94;4154118;28;20045;-72
2024/02/20 08:42:57;;;;;;;11.75;3.80;;;;;;;10.40;63.59;101189.09;4152953;28;20022;-70
2024/02/20 08:44:58;;;;;;;15.20;4.23;;;;;;;10.13;64.06;101192.84;4155244;28;20029;-72
2024/02/20 08:46:58;;;;;;;16.08;3.38;;;;;;;10.36;63.35;101186.75;4154518;28;20272;-72
2024/02/20 08:48:59;;;;;;;9.57;3.03;;;;;;;10.52;62.90;101191.81;4155060;28;20028;-71
2024/02/20 08:51:00;;;;;;;13.48;4.32;;;;;;;10.79;62.40;101194.22;4153688;28;20022;-72
2024/02/20 08:53:05;;;;;;;11.63;2.92;;;;;;;10.48;63.04;101201.91;4153211;28;20418;-72
2024/02/20 08:55:06;;;;;;;12.20;3.50;;;;;;;10.78;62.52;101189.84;4153484;28;20027;-72
2024/02/20 08:57:06;;;;;;;10.23;3.53;;;;;;;10.52;62.71;101195.38;4152253;28;20022;-71
2024/02/20 08:59:08;;;;;;;11.95;2.92;;;;;;;10.29;62.85;101197.06;4147002;28;20108;-71
2024/02/20 09:01:08;;;;;;;12.25;2.88;;;;;;;10.45;62.44;101191.41;4147236;28;20104;-71
2024/02/20 09:03:09;;;;;;;15.57;3.95;;;;;;;10.69;62.13;101191.38;4147048;28;20053;-76
2024/02/20 09:05:10;;;;;;;13.00;3.03;;;;;;;11.03;61.23;101191.47;4146446;28;20087;-72
2024/02/20 09:07:10;;;;;;;12.52;3.20;;;;;;;11.04;61.24;101203.88;4146265;28;20439;-71
2024/02/20 09:09:11;;;;;;;13.68;3.00;;;;;;;10.86;61.51;101200.78;4146604;28;20649;-72
2024/02/20 09:11:11;;;;;;;10.80;3.03;;;;;;;11.26;60.58;101199.50;4146573;28;20069;-72
2024/02/20 09:13:12;;;;;;;12.05;3.17;;;;;;;11.30;60.55;101198.28;4146601;28;20258;-73
2024/02/20 09:15:12;;;;;;;11.27;3.22;;;;;;;11.21;60.75;101199.00;4145472;28;20034;-73
2024/02/20 09:17:13;;;;;;;13.02;2.83;;;;;;;11.58;59.78;101193.41;4147109;28;20601;-71
2024/02/20 09:19:15;;;;;;;12.13;3.72;;;;;;;11.54;60.25;101194.63;4156143;28;20026;-72
2024/02/20 09:21:16;;;;;;;9.93;3.30;;;;;;;11.79;59.24;101195.34;4157109;28;20489;-72